Flight Track Log - Related Links

Times and Time Zones

All times are in EDT time to prevent confusion due to time zone crossing. See the EGF3994 flight status page for this flight to view local times or setup timezone preferences in your user account.

Time Position Orientation Groundspeed Altitude Reporting Facility
EDT Latitude Longitude Course Direction KTS MPH feet Rate Location/Type
Sun 06:47:52 PM 41.9167 -87.8833 90° East 214 246 2,700  Level Chicago TRACON
Sun 06:48:46 PM 41.8833 -87.8000 118° Southeast 272 313 4,100 914 Climbing Chicago TRACON
Sun 06:50:23 PM 41.8850 -87.6478 89° East 267 307 5,000 981 Climbing Chicago Center
Sun 06:51:00 PM 41.9395 -87.2193 95° East  Level FlightAware Approximate
Sun 06:51:25 PM 41.8936 -87.5475 83° East 271 312 6,700  Level Chicago Center
Sun 06:52:00 PM 41.9333 -87.0832 90° East  Level FlightAware Approximate
Sun 06:52:27 PM 41.9022 -87.4458 83° East 274 315 8,500  Level Chicago Center
Sun 06:53:00 PM 41.9333 -86.9595 90° East  Level FlightAware Approximate
Sun 06:53:29 PM 41.9197 -87.3172 80° East 291 335 11,300  Level Chicago Center
Sun 06:54:31 PM 41.9317 -87.2033 82° East 308 354 12,500 871 Climbing Chicago Center
Sun 06:55:33 PM 41.9439 -87.0700 83° East 355 409 13,100 629 Climbing Chicago Center
Sun 06:56:35 PM 41.9475 -86.9267 88° East 383 441 13,800 968 Climbing Chicago Center
Sun 06:57:37 PM 41.9486 -86.7806 89° East 391 450 15,100 1,548 Climbing Chicago Center
Sun 06:58:39 PM 41.9511 -86.6206 89° East 384 442 17,000 1,403 Climbing Chicago Center
Sun 06:59:41 PM 41.9333 -86.4786 100° East 386 444 18,000 1,016 Climbing Chicago Center
Sun 07:00:43 PM 41.9050 -86.3339 105° East 400 460 19,100 1,056 Climbing Chicago Center
Sun 07:01:46 PM 41.8769 -86.1869 104° East 406 467 20,200 1,104 Climbing Chicago Center
Sun 07:02:48 PM 41.8428 -86.0072 104° East 415 478 21,400 1,065 Climbing Chicago Center
Sun 07:03:50 PM 41.8136 -85.8567 105° East 418 481 22,400 774 Climbing Chicago Center
Sun 07:04:52 PM 41.7847 -85.7050 104° East 420 483 23,000 290 Climbing Chicago Center
Sun 07:05:54 PM 41.7464 -85.5489 108° East 442 509 23,000  Level Chicago Center
Sun 07:06:56 PM 41.6258 -85.4608 151° Southeast 448 516 23,000 -484 Level Chicago Center
Sun 07:07:58 PM 41.5072 -85.4103 162° South 446 513 22,000 -968 Descending Chicago Center
Sun 07:09:00 PM 41.3903 -85.3600 162° South 446 513 21,000 -532 Descending Chicago Center
Sun 07:10:02 PM 41.2733 -85.3103 162° South 443 510 20,900 -581 Descending Chicago Center
Sun 07:11:04 PM 41.1564 -85.2603 162° South 442 509 19,800 -1,210 Descending Chicago Center
Sun 07:12:06 PM 41.0442 -85.2136 163° South 429 494 18,400 -1,645 Descending Chicago Center
Sun 07:13:08 PM 40.9350 -85.1136 145° Southeast 413 475 16,400 -1,645 Descending Chicago Center
Sun 07:14:10 PM 40.8650 -84.9972 128° Southeast 409 471 15,000 -677 Descending Chicago Center
Sun 07:15:12 PM 40.7978 -84.8828 128° Southeast 402 463 15,000  Level Chicago Center
Sun 07:16:14 PM 40.7294 -84.7694 128° Southeast 397 457 15,000 -96 Level Chicago Center
Sun 07:17:17 PM 40.6597 -84.6547 129° Southeast 400 460 14,800 -690 Descending Chicago Center
Sun 07:17:41 PM 40.6211 -84.5894 128° Southeast 401 461 14,000 -1,837 Descending Indianapolis Center
Sun 07:18:06 PM 40.5967 -84.5467 127° Southeast 399 459 13,300 -1,655 Descending Indianapolis Center
Sun 07:19:08 PM 40.5358 -84.4350 126° Southeast 376 433 11,600 -1,597 Descending Indianapolis Center
Sun 07:20:10 PM 40.4483 -84.3886 158° South 357 411 10,000 -1,325 Descending Indianapolis Center
Sun 07:20:25 PM 40.4178 -84.3828 172° South 352 405 9,900 -97 Descending Indianapolis Center
Sun 07:21:12 PM 40.3553 -84.3531 160° South 347 399 9,900 -606 Level Indianapolis Center
Sun 07:22:14 PM 40.2808 -84.3183 160° South 287 330 8,800 -1,452 Descending Indianapolis Center
Sun 07:23:16 PM 40.2081 -84.2933 165° South 271 312 6,900 -1,984 Descending Indianapolis Center
Sun 07:24:18 PM 40.1350 -84.2358 149° Southeast 263 303 4,700 -1,887 Descending Indianapolis Center
Sun 07:25:20 PM 40.0675 -84.2183 169° South 256 295 3,000 -1,645 Descending Indianapolis Center

Login

Don't have an account? Register now (free) for customized features, flight alerts, and more!